Time;durP1;ratioP1;P1;durP2;ratioP2;P2;SDS_P1;SDS_P2;PMS_P1;PMS_P2;Temp;Humidity;BMP_temperature;BMP_pressure;BME280_temperature;BME280_humidity;BME280_pressure;Samples;Min_cycle;Max_cycle;Signal;HPM_P1;HPM_P2
2021/03/05 03:46:20;;;;;;;4.18;3.35;;;7.10;99.90;;;;;;5609901;23;89532;-86
2021/03/05 03:48:53;;;;;;;4.18;3.75;;;7.20;99.90;;;;;;4972721;28;87724;-86
2021/03/05 03:51:22;;;;;;;4.95;3.90;;;7.20;99.90;;;;;;4956086;28;90958;-85
2021/03/05 03:53:50;;;;;;;5.05;4.53;;;7.20;99.90;;;;;;4956191;28;86997;-85
2021/03/05 03:56:18;;;;;;;4.07;3.67;;;7.20;99.90;;;;;;4950841;28;87649;-87
2021/03/05 03:58:48;;;;;;;5.38;4.75;;;7.10;99.90;;;;;;4972629;28;87309;-86
2021/03/05 04:01:15;;;;;;;5.90;4.55;;;7.00;99.90;;;;;;4974556;28;89046;-87
2021/03/05 04:03:48;;;;;;;5.03;4.32;;;7.10;99.90;;;;;;4975249;28;87877;-86
2021/03/05 04:06:15;;;;;;;5.38;3.80;;;7.10;99.90;;;;;;4975109;28;86898;-86
2021/03/05 04:08:42;;;;;;;4.38;3.70;;;7.10;99.90;;;;;;4950277;28;90999;-85
2021/03/05 04:11:09;;;;;;;4.40;4.00;;;7.10;99.90;;;;;;4963718;28;87212;-87
2021/03/05 04:13:39;;;;;;;4.45;3.72;;;7.10;99.90;;;;;;4969226;28;86876;-87
2021/03/05 04:16:06;;;;;;;4.43;4.00;;;7.00;99.90;;;;;;4966700;28;86675;-86
2021/03/05 04:18:33;;;;;;;6.07;4.18;;;7.00;99.90;;;;;;4957320;28;90024;-87
2021/03/05 04:21:03;;;;;;;4.85;4.07;;;7.00;99.90;;;;;;4975956;28;86562;-87
2021/03/05 04:23:30;;;;;;;8.57;4.63;;;7.00;99.90;;;;;;4969007;28;86430;-87
2021/03/05 04:25:57;;;;;;;6.57;4.30;;;6.80;99.90;;;;;;4937866;28;87118;-87
2021/03/05 04:28:23;;;;;;;4.57;4.00;;;6.90;99.90;;;;;;4934755;28;90954;-85
2021/03/05 04:30:48;;;;;;;5.47;4.43;;;6.80;99.90;;;;;;4953270;28;89918;-87
2021/03/05 04:33:15;;;;;;;4.95;4.45;;;6.80;99.90;;;;;;4955457;28;86435;-86
2021/03/05 04:35:41;;;;;;;5.32;4.70;;;6.80;99.90;;;;;;4956852;28;86731;-87
2021/03/05 04:38:06;;;;;;;6.43;4.90;;;6.80;99.90;;;;;;4971236;28;87373;-87
2021/03/05 04:40:32;;;;;;;6.72;4.38;;;6.80;99.90;;;;;;4965205;28;87374;-87
2021/03/05 04:42:58;;;;;;;4.70;4.13;;;6.70;99.90;;;;;;4976742;28;86769;-86
2021/03/05 04:45:23;;;;;;;3.97;3.60;;;6.80;99.90;;;;;;4959938;28;86309;-87
2021/03/05 04:47:49;;;;;;;4.05;3.65;;;6.80;99.90;;;;;;4969109;28;89322;-88
2021/03/05 04:50:15;;;;;;;5.20;3.60;;;6.80;99.90;;;;;;4962348;28;87053;-89
2021/03/05 04:52:41;;;;;;;4.30;3.83;;;6.90;99.90;;;;;;4964552;28;87978;-92
2021/03/05 04:55:07;;;;;;;4.25;3.85;;;7.00;99.90;;;;;;4957654;28;87040;-92
2021/03/05 04:57:33;;;;;;;5.63;3.97;;;7.10;99.90;;;;;;4950629;28;90462;-87
2021/03/05 04:59:58;;;;;;;7.03;3.97;;;7.10;99.90;;;;;;4986542;28;87095;-89
2021/03/05 05:02:25;;;;;;;4.75;3.90;;;7.10;99.90;;;;;;4957644;28;87291;-86
2021/03/05 05:04:52;;;;;;;5.70;3.97;;;7.00;99.90;;;;;;4941551;28;86948;-87
2021/03/05 05:07:18;;;;;;;4.13;3.75;;;7.10;99.90;;;;;;4965919;28;87045;-87
2021/03/05 05:09:44;;;;;;;6.80;4.88;;;;;;;;;;4957705;28;86756;-89
2021/03/05 05:12:13;;;;;;;7.75;5.63;;;7.30;99.90;;;;;;4946513;28;87117;-88
2021/03/05 05:14:39;;;;;;;11.57;6.28;;;;;;;;;;4940803;28;86708;-87
2021/03/05 05:17:04;;;;;;;9.75;7.07;;;7.30;99.90;;;;;;4967459;28;88552;-88
2021/03/05 05:19:31;;;;;;;8.02;6.32;;;7.30;99.90;;;;;;4966328;28;89861;-86
2021/03/05 05:21:57;;;;;;;8.82;7.00;;;7.40;99.90;;;;;;4954190;28;86932;-86
2021/03/05 05:24:23;;;;;;;8.35;6.07;;;7.40;99.90;;;;;;4961884;28;86807;-86
2021/03/05 05:26:49;;;;;;;6.35;5.70;;;7.40;99.90;;;;;;4968021;28;87095;-87
2021/03/05 05:29:15;;;;;;;8.88;6.28;;;7.50;99.90;;;;;;4963069;28;88306;-86
2021/03/05 05:31:41;;;;;;;8.73;5.95;;;7.50;99.90;;;;;;4956064;28;86901;-88
2021/03/05 05:34:06;;;;;;;11.32;7.05;;;7.50;99.90;;;;;;4947520;28;86309;-88
2021/03/05 05:36:32;;;;;;;9.43;6.50;;;7.60;99.90;;;;;;4958356;28;90173;-88
2021/03/05 05:38:58;;;;;;;7.90;6.20;;;7.70;99.90;;;;;;4968014;28;87451;-87
2021/03/05 05:41:26;;;;;;;8.52;6.38;;;7.80;99.90;;;;;;4973559;28;87827;-84
2021/03/05 05:43:54;;;;;;;9.17;6.57;;;7.80;99.90;;;;;;4970138;28;86572;-87
2021/03/05 05:46:22;;;;;;;10.60;7.05;;;7.80;99.90;;;;;;4968174;28;88743;-87
2021/03/05 05:48:48;;;;;;;8.63;6.43;;;7.80;99.90;;;;;;4952460;28;87590;-88
2021/03/05 05:51:27;;;;;;;9.82;6.65;;;7.80;99.90;;;;;;4971410;28;86812;-88
2021/03/05 05:53:57;;;;;;;10.20;6.82;;;7.90;99.90;;;;;;4967422;28;86817;-88
2021/03/05 05:56:24;;;;;;;11.45;7.70;;;7.90;99.90;;;;;;4964933;28;88561;-85
2021/03/05 05:58:51;;;;;;;8.07;6.70;;;8.00;99.90;;;;;;4967666;28;87475;-87
2021/03/05 06:01:18;;;;;;;8.25;6.28;;;8.00;99.90;;;;;;4955179;28;86982;-88
2021/03/05 06:03:44;;;;;;;8.55;6.57;;;7.90;99.90;;;;;;4936329;28;87318;-82
2021/03/05 06:06:13;;;;;;;9.00;6.90;;;7.90;99.90;;;;;;4952807;28;88527;-88
2021/03/05 06:08:39;;;;;;;8.55;7.03;;;7.90;99.90;;;;;;4955674;28;88147;-87
2021/03/05 06:11:06;;;;;;;9.32;7.38;;;7.90;99.90;;;;;;4958277;28;87055;-87
2021/03/05 06:13:32;;;;;;;8.98;7.03;;;7.90;99.90;;;;;;4956874;28;86644;-87
2021/03/05 06:16:15;;;;;;;10.27;7.82;;;7.90;99.90;;;;;;4955116;28;88708;-86
2021/03/05 06:18:42;;;;;;;10.25;7.93;;;7.90;99.90;;;;;;4940037;28;89447;-88
2021/03/05 06:21:08;;;;;;;10.93;7.75;;;7.90;99.90;;;;;;4968281;28;86179;-86
2021/03/05 06:27:00;;;;;;;10.45;7.15;;;7.80;99.90;;;;;;4968618;28;86546;-88
2021/03/05 06:29:41;;;;;;;9.93;6.15;;;7.80;99.90;;;;;;4972605;28;88601;-87
2021/03/05 06:32:09;;;;;;;8.07;6.68;;;7.70;99.90;;;;;;4968296;28;87638;-88
2021/03/05 06:34:49;;;;;;;8.55;6.43;;;7.70;99.90;;;;;;4969195;28;87045;-86
2021/03/05 06:37:19;;;;;;;7.85;5.88;;;7.60;99.90;;;;;;4971945;28;91783;-89
2021/03/05 06:43:07;;;;;;;8.35;6.28;;;7.70;99.90;;;;;;4970885;28;86635;-86
2021/03/05 06:45:37;;;;;;;7.15;5.90;;;7.70;99.90;;;;;;4973079;28;86680;-87
2021/03/05 06:48:07;;;;;;;7.90;5.88;;;7.70;99.90;;;;;;4973756;28;87495;-86
2021/03/05 06:50:35;;;;;;;6.45;5.82;;;7.70;99.90;;;;;;4974006;28;88941;-86
2021/03/05 06:56:32;;;;;;;9.65;6.18;;;7.60;99.90;;;;;;4971167;28;86724;-88
2021/03/05 06:59:09;;;;;;;7.28;6.57;;;7.50;99.90;;;;;;4975310;28;87983;-87
2021/03/05 07:01:56;;;;;;;10.00;6.10;;;7.20;99.90;;;;;;4975934;28;88338;-88
2021/03/05 07:04:26;;;;;;;7.22;5.47;;;7.10;99.90;;;;;;4975478;28;86321;-87
2021/03/05 07:06:59;;;;;;;8.27;5.72;;;7.20;99.90;;;;;;4975571;28;86652;-87
2021/03/05 07:09:30;;;;;;;10.93;6.53;;;7.20;99.90;;;;;;4974140;28;86952;-87
2021/03/05 07:11:56;;;;;;;8.13;5.90;;;7.20;99.90;;;;;;4956277;28;91080;-87
2021/03/05 07:14:27;;;;;;;10.20;6.07;;;7.30;99.90;;;;;;4975101;28;86330;-87
2021/03/05 07:16:54;;;;;;;7.57;5.25;;;7.40;99.90;;;;;;4975009;28;85860;-87
2021/03/05 07:19:23;;;;;;;11.82;6.50;;;7.40;99.90;;;;;;4974995;28;88100;-85
2021/03/05 07:21:50;;;;;;;10.13;6.70;;;7.40;99.90;;;;;;4974562;28;86830;-88
2021/03/05 07:24:18;;;;;;;9.02;5.93;;;7.30;99.90;;;;;;4973991;28;87797;-86
2021/03/05 07:30:12;;;;;;;13.00;6.53;;;7.20;99.90;;;;;;4972518;28;86666;-88
2021/03/05 07:36:03;;;;;;;23.88;11.73;;;7.10;99.90;;;;;;4973732;28;86851;-86
2021/03/05 07:38:31;;;;;;;9.30;5.97;;;7.20;99.90;;;;;;4957268;28;87587;-88
2021/03/05 07:41:02;;;;;;;12.05;6.38;;;7.20;99.90;;;;;;4976115;28;87748;-87
2021/03/05 07:43:28;;;;;;;11.85;7.85;;;7.10;99.90;;;;;;4980957;28;90420;-88
2021/03/05 07:45:54;;;;;;;11.07;8.00;;;7.10;99.90;;;;;;4984440;28;87210;-88
2021/03/05 07:48:21;;;;;;;9.63;6.68;;;7.20;99.90;;;;;;4982526;28;86286;-88
2021/03/05 07:50:47;;;;;;;8.85;6.03;;;7.20;99.90;;;;;;4979556;28;88042;-88
2021/03/05 07:53:13;;;;;;;10.75;6.75;;;7.10;99.90;;;;;;4980719;28;88103;-88
2021/03/05 07:55:42;;;;;;;9.82;7.60;;;7.20;99.90;;;;;;4979876;28;86700;-88
2021/03/05 07:58:08;;;;;;;14.63;7.35;;;7.30;99.90;;;;;;4961475;28;86871;-88
2021/03/05 08:00:50;;;;;;;16.65;9.88;;;7.40;99.90;;;;;;4977760;28;89589;-86
2021/03/05 08:03:18;;;;;;;31.10;16.42;;;7.50;99.90;;;;;;4978276;28;86879;-88
2021/03/05 08:05:46;;;;;;;18.17;10.32;;;7.60;99.90;;;;;;4978713;28;86675;-86
2021/03/05 08:08:19;;;;;;;8.52;6.68;;;7.60;99.90;;;;;;4978004;28;86237;-87
2021/03/05 08:10:55;;;;;;;11.10;7.13;;;7.60;99.90;;;;;;4974732;28;90857;-86
2021/03/05 08:16:43;;;;;;;10.07;7.55;;;7.60;99.90;;;;;;4974205;28;87799;-88
2021/03/05 08:19:08;;;;;;;11.35;7.72;;;7.70;99.90;;;;;;4977582;28;86723;-88
2021/03/05 08:21:57;;;;;;;12.00;7.38;;;7.70;99.90;;;;;;4976945;28;86984;-86
2021/03/05 08:24:39;;;;;;;13.13;7.20;;;7.60;99.90;;;;;;4978331;28;87353;-88
2021/03/05 08:27:18;;;;;;;11.70;7.35;;;7.60;99.90;;;;;;4978568;28;86706;-88
2021/03/05 08:29:53;;;;;;;12.25;6.45;;;7.60;99.90;;;;;;4977399;28;86735;-87
2021/03/05 08:32:49;;;;;;;8.38;6.47;;;7.50;99.90;;;;;;4977699;28;87671;-88
2021/03/05 08:35:39;;;;;;;7.20;5.97;;;7.30;99.90;;;;;;4961684;28;87511;-88
2021/03/05 08:38:20;;;;;;;7.50;6.20;;;7.20;99.90;;;;;;4978175;28;86676;-87
2021/03/05 08:40:45;;;;;;;8.23;6.13;;;7.20;99.90;;;;;;4980080;28;86353;-88
2021/03/05 08:43:11;;;;;;;8.90;6.78;;;7.30;99.90;;;;;;4977081;28;91284;-88
2021/03/05 08:45:43;;;;;;;12.05;6.97;;;7.40;99.90;;;;;;4977772;28;87927;-88
2021/03/05 08:48:11;;;;;;;8.02;6.22;;;7.50;99.90;;;;;;4978235;28;86766;-89
2021/03/05 08:50:38;;;;;;;15.65;10.15;;;7.60;99.90;;;;;;4976724;28;86209;-88
2021/03/05 08:53:06;;;;;;;93.35;38.22;;;7.60;99.90;;;;;;4974394;28;87486;-88
2021/03/05 08:59:06;;;;;;;9.23;6.78;;;7.60;99.90;;;;;;4974812;28;86215;-89
2021/03/05 09:01:39;;;;;;;8.65;6.47;;;7.60;99.90;;;;;;4960444;28;86973;-89
2021/03/05 09:04:12;;;;;;;9.38;7.20;;;7.60;99.90;;;;;;4978895;28;86978;-90
2021/03/05 09:07:11;;;;;;;8.93;6.85;;;7.60;99.90;;;;;;4978533;28;88331;-89
2021/03/05 09:13:00;;;;;;;11.90;8.60;;;7.70;99.90;;;;;;4985995;28;86016;-88
2021/03/05 09:15:36;;;;;;;21.23;12.57;;;7.60;99.90;;;;;;4986646;28;86648;-85
2021/03/05 09:18:02;;;;;;;29.67;14.98;;;7.50;99.90;;;;;;4973150;28;86826;-88
2021/03/05 09:20:47;;;;;;;20.88;12.65;;;7.50;99.90;;;;;;4968411;28;86408;-87
2021/03/05 09:26:34;;;;;;;21.33;11.95;;;7.60;99.90;;;;;;4965836;28;86259;-87
2021/03/05 09:29:03;;;;;;;18.67;11.63;;;7.60;99.90;;;;;;4968037;28;88625;-89
2021/03/05 09:31:29;;;;;;;16.55;10.75;;;7.70;99.90;;;;;;4950678;28;86400;-87
2021/03/05 09:34:00;;;;;;;18.48;12.10;;;7.70;99.90;;;;;;4961596;28;86405;-87
2021/03/05 09:36:26;;;;;;;;;;;7.70;99.90;;;;;;4967040;28;90938;-87
2021/03/05 09:38:56;;;;;;;19.13;11.57;;;7.70;99.90;;;;;;4985137;28;87983;-88
2021/03/05 09:44:48;;;;;;;19.90;11.77;;;7.80;99.90;;;;;;4973990;28;86544;-87
2021/03/05 09:47:14;;;;;;;18.70;11.52;;;7.80;99.90;;;;;;4963399;28;91145;-88
2021/03/05 09:53:27;;;;;;;19.67;12.18;;;7.90;99.90;;;;;;4981126;28;86233;-88
2021/03/05 09:55:54;;;;;;;19.75;12.65;;;7.90;99.90;;;;;;4961049;28;87673;-89
2021/03/05 09:58:20;;;;;;;24.88;14.10;;;7.90;99.90;;;;;;4959444;28;90666;-88
2021/03/05 10:00:48;;;;;;;21.25;12.75;;;7.90;99.90;;;;;;4977529;28;87169;-89
2021/03/05 10:03:14;;;;;;;21.98;14.48;;;7.80;99.90;;;;;;4977436;28;87016;-88
2021/03/05 10:09:05;;;;;;;20.60;13.15;;;7.80;99.90;;;;;;4972551;28;86232;-89
2021/03/05 10:15:06;;;;;;;20.58;12.77;;;7.80;99.90;;;;;;4975731;28;86726;-89
2021/03/05 10:21:41;;;;;;;20.67;13.23;;;7.80;99.90;;;;;;4953120;28;86825;-89
2021/03/05 10:24:09;;;;;;;20.90;13.02;;;7.70;99.90;;;;;;4955603;28;87584;-88
2021/03/05 10:26:35;;;;;;;19.20;13.60;;;7.70;99.90;;;;;;4955976;28;86868;-88
2021/03/05 10:35:45;;;;;;;20.30;12.40;;;7.70;99.90;;;;;;4963400;28;87026;-89
2021/03/05 10:38:11;;;;;;;23.35;12.57;;;7.60;99.90;;;;;;4963540;28;86820;-88
2021/03/05 10:40:37;;;;;;;19.35;12.65;;;7.50;99.90;;;;;;4963883;28;86894;-87
2021/03/05 10:43:07;;;;;;;19.02;12.57;;;7.50;99.90;;;;;;4952406;28;90200;-89
2021/03/05 10:45:32;;;;;;;19.15;11.57;;;7.40;99.90;;;;;;4955434;28;88357;-87
2021/03/05 10:48:00;;;;;;;18.40;11.77;;;7.40;99.90;;;;;;4954907;28;86575;-89
2021/03/05 10:50:26;;;;;;;21.67;13.10;;;7.40;99.90;;;;;;4955310;28;86132;-88
2021/03/05 10:56:16;;;;;;;14.48;9.23;;;7.40;99.90;;;;;;4951431;28;86926;-88
2021/03/05 10:58:42;;;;;;;11.00;8.30;;;7.30;99.90;;;;;;4953793;28;87752;-88
2021/03/05 11:01:07;;;;;;;9.98;7.40;;;7.20;99.90;;;;;;4936735;28;87034;-88
2021/03/05 11:06:56;;;;;;;15.25;8.27;;;7.00;99.90;;;;;;4956309;28;86796;-87
2021/03/05 11:12:47;;;;;;;28.20;13.85;;;6.90;99.90;;;;;;4969204;28;86641;-87
2021/03/05 11:15:13;;;;;;;11.88;8.40;;;6.80;99.90;;;;;;4967192;28;88199;-87
2021/03/05 11:21:01;;;;;;;11.30;9.00;;;6.80;99.90;;;;;;4968883;28;86829;-89
2021/03/05 11:23:26;;;;;;;8.45;6.80;;;6.80;99.90;;;;;;4971299;28;86827;-86
2021/03/05 11:25:52;;;;;;;7.35;6.55;;;6.80;99.90;;;;;;4969129;28;87621;-89
2021/03/05 11:28:18;;;;;;;9.75;6.65;;;6.70;99.90;;;;;;4971367;28;87303;-89
2021/03/05 11:30:44;;;;;;;8.07;6.72;;;6.80;99.90;;;;;;4969301;28;86752;-87
2021/03/05 11:33:11;;;;;;;8.07;6.30;;;6.90;99.90;;;;;;4970682;28;86700;-87
2021/03/05 11:35:38;;;;;;;8.77;7.15;;;6.90;99.90;;;;;;4954281;28;89016;-82
2021/03/05 11:38:05;;;;;;;8.55;6.82;;;7.00;99.90;;;;;;4953514;28;87383;-88
2021/03/05 11:40:31;;;;;;;8.25;7.32;;;7.10;99.90;;;;;;4974418;28;86734;-86
2021/03/05 11:42:57;;;;;;;8.43;7.47;;;7.20;99.90;;;;;;4975594;28;86163;-86
2021/03/05 11:45:23;;;;;;;14.52;11.60;;;7.40;99.90;;;;;;4972514;28;87549;-85
2021/03/05 11:47:49;;;;;;;8.95;7.78;;;7.40;99.90;;;;;;4972881;28;86956;-85
2021/03/05 11:50:15;;;;;;;10.63;7.95;;;7.40;99.90;;;;;;4971523;28;87692;-83
2021/03/05 11:52:41;;;;;;;8.73;6.85;;;7.60;99.90;;;;;;4977360;28;87065;-87
2021/03/05 11:55:08;;;;;;;8.45;6.85;;;7.80;99.90;;;;;;4975065;28;87392;-88
2021/03/05 11:57:33;;;;;;;7.50;6.10;;;8.00;99.90;;;;;;4970833;28;89134;-88
2021/03/05 11:59:59;;;;;;;6.95;5.35;;;8.00;99.90;;;;;;4972468;28;86368;-87
2021/03/05 12:02:25;;;;;;;6.40;5.72;;;7.90;99.90;;;;;;4970969;28;86993;-87
2021/03/05 12:08:13;;;;;;;7.40;6.65;;;8.10;99.90;;;;;;4968675;28;85985;-88
2021/03/05 12:10:38;;;;;;;6.97;6.22;;;8.10;99.90;;;;;;4955886;28;86716;-87
2021/03/05 12:13:05;;;;;;;6.70;6.00;;;8.10;99.90;;;;;;4972118;28;86695;-87
2021/03/05 12:15:31;;;;;;;7.60;6.35;;;8.20;99.90;;;;;;4972572;28;91329;-87
2021/03/05 12:17:57;;;;;;;6.80;5.88;;;8.30;99.90;;;;;;4971645;28;87242;-86
2021/03/05 12:20:23;;;;;;;6.75;5.93;;;8.30;99.90;;;;;;4972710;28;86869;-88
2021/03/05 12:22:48;;;;;;;11.15;6.72;;;8.40;99.90;;;;;;4971690;28;86687;-87
2021/03/05 12:25:14;;;;;;;8.88;6.90;;;8.50;99.90;;;;;;4975781;28;87159;-87
2021/03/05 12:27:40;;;;;;;7.93;6.43;;;8.40;99.90;;;;;;4974548;28;87404;-87
2021/03/05 12:30:07;;;;;;;6.80;5.70;;;8.30;99.90;;;;;;4973250;28;86598;-86
2021/03/05 12:35:54;;;;;;;6.18;5.57;;;8.20;99.90;;;;;;4969418;28;87186;-85
2021/03/05 12:38:20;;;;;;;5.47;4.97;;;8.20;99.90;;;;;;4974066;28;87046;-84
2021/03/05 12:40:46;;;;;;;4.75;4.35;;;8.10;99.90;;;;;;4973689;28;87649;-86
2021/03/05 12:43:16;;;;;;;5.45;4.95;;;7.90;99.90;;;;;;4971001;28;86791;-89
2021/03/05 12:45:42;;;;;;;5.20;4.80;;;7.90;99.90;;;;;;4968568;28;88691;-87
2021/03/05 12:48:09;;;;;;;5.22;4.65;;;7.80;99.90;;;;;;4969628;28;87275;-86
2021/03/05 12:53:57;;;;;;;5.32;4.78;;;7.90;99.90;;;;;;4967102;28;86619;-88
2021/03/05 12:59:45;;;;;;;5.18;4.68;;;8.30;99.90;;;;;;4965751;28;85851;-86
2021/03/05 13:05:32;;;;;;;7.47;6.10;;;8.60;99.90;;;;;;4965626;28;86651;-86
2021/03/05 13:07:59;;;;;;;5.43;4.80;;;8.90;99.90;;;;;;4967035;28;91525;-88
2021/03/05 13:10:24;;;;;;;5.05;4.55;;;8.90;99.90;;;;;;4968099;28;87971;-87
2021/03/05 13:16:12;;;;;;;5.03;4.53;;;9.10;99.90;;;;;;4973675;28;86384;-88
2021/03/05 13:18:38;;;;;;;5.75;5.10;;;9.20;99.90;;;;;;4972087;28;87362;-87
2021/03/05 13:21:04;;;;;;;4.82;4.43;;;9.20;99.90;;;;;;4970313;28;86609;-88
2021/03/05 13:23:29;;;;;;;4.93;4.40;;;9.30;99.90;;;;;;4969851;28;86330;-88
2021/03/05 13:26:00;;;;;;;4.80;4.20;;;9.40;99.90;;;;;;4969802;28;86141;-87
2021/03/05 13:28:26;;;;;;;5.53;4.90;;;9.10;99.90;;;;;;4970708;28;86998;-88
2021/03/05 13:30:52;;;;;;;5.32;4.82;;;9.30;99.90;;;;;;4952445;28;87453;-88
2021/03/05 13:33:18;;;;;;;6.03;5.43;;;9.40;99.90;;;;;;4968604;28;87678;-88
2021/03/05 13:35:43;;;;;;;6.70;4.95;;;9.30;99.90;;;;;;4969036;28;86704;-88
2021/03/05 13:38:09;;;;;;;5.47;4.93;;;9.20;99.90;;;;;;4968230;28;87116;-87
2021/03/05 13:40:35;;;;;;;5.32;4.82;;;9.10;99.90;;;;;;4968366;28;86784;-88
2021/03/05 13:43:00;;;;;;;8.55;5.15;;;9.00;99.90;;;;;;4968221;28;86828;-88
2021/03/05 13:45:26;;;;;;;6.65;5.00;;;9.00;99.90;;;;;;4967530;28;86265;-89
2021/03/05 13:47:52;;;;;;;6.63;5.30;;;8.80;99.90;;;;;;4963162;28;89876;-89
2021/03/05 13:50:18;;;;;;;6.32;5.00;;;;;;;;;;4965256;28;87606;-88
2021/03/05 13:52:44;;;;;;;5.65;4.63;;;9.10;99.90;;;;;;4967265;28;86359;-86
2021/03/05 13:55:10;;;;;;;5.80;4.90;;;9.10;99.90;;;;;;4965844;28;86840;-87
2021/03/05 13:57:37;;;;;;;6.03;4.32;;;8.90;99.90;;;;;;4948105;28;90924;-87
2021/03/05 14:03:25;;;;;;;5.60;4.47;;;8.90;99.90;;;;;;4964108;28;86707;-88
2021/03/05 14:05:54;;;;;;;4.90;4.47;;;8.80;99.90;;;;;;4949556;28;87086;-86
2021/03/05 14:08:20;;;;;;;4.72;4.28;;;8.70;99.90;;;;;;4948144;28;90288;-88
2021/03/05 14:10:46;;;;;;;4.50;4.10;;;8.60;99.90;;;;;;4966947;28;86900;-86
2021/03/05 14:13:12;;;;;;;5.28;4.80;;;8.60;99.90;;;;;;4967127;28;86857;-87
2021/03/05 14:15:39;;;;;;;5.10;4.60;;;8.60;99.90;;;;;;4948642;28;86153;-86
2021/03/05 14:18:06;;;;;;;5.10;4.60;;;8.60;99.90;;;;;;4949375;28;88542;-87
2021/03/05 14:20:33;;;;;;;5.63;5.03;;;8.70;99.90;;;;;;4966841;28;87386;-87
2021/03/05 14:22:59;;;;;;;6.38;5.68;;;8.70;99.90;;;;;;4948411;28;87813;-87
2021/03/05 14:25:25;;;;;;;5.93;5.25;;;8.60;99.90;;;;;;4966506;28;86747;-87
2021/03/05 14:27:51;;;;;;;5.88;5.38;;;8.50;99.90;;;;;;4966883;28;87017;-87
2021/03/05 14:33:38;;;;;;;7.93;5.97;;;8.40;99.90;;;;;;4964166;28;86046;-87
2021/03/05 14:39:26;;;;;;;6.25;5.65;;;8.30;99.90;;;;;;4967494;28;86701;-88
2021/03/05 14:41:52;;;;;;;6.15;5.32;;;8.20;99.90;;;;;;4970922;28;87008;-88
2021/03/05 14:44:19;;;;;;;7.20;5.80;;;8.10;99.90;;;;;;4955172;28;86731;-86
2021/03/05 14:46:45;;;;;;;6.50;5.13;;;8.00;99.90;;;;;;4972048;28;87096;-87
2021/03/05 14:49:11;;;;;;;7.35;5.18;;;7.80;99.90;;;;;;4971671;28;87847;-87
2021/03/05 14:51:36;;;;;;;6.93;5.18;;;7.70;99.90;;;;;;4970437;28;89333;-87
2021/03/05 14:57:24;;;;;;;7.38;5.50;;;7.50;99.90;;;;;;4970426;28;85961;-88
2021/03/05 14:59:50;;;;;;;7.45;6.28;;;7.60;99.90;;;;;;4974844;28;87640;-88
2021/03/05 15:02:17;;;;;;;8.63;6.75;;;7.60;99.90;;;;;;4957516;28;88889;-87
2021/03/05 15:08:05;;;;;;;7.22;5.97;;;7.60;99.90;;;;;;4975156;28;85839;-87
2021/03/05 15:10:30;;;;;;;8.07;6.65;;;7.50;99.90;;;;;;4986032;28;90129;-87
2021/03/05 15:16:19;;;;;;;7.85;5.70;;;7.40;99.90;;;;;;4986673;28;87527;-87
2021/03/05 15:18:44;;;;;;;6.78;5.60;;;7.30;99.90;;;;;;4982212;28;86925;-90
2021/03/05 15:21:10;;;;;;;7.03;5.78;;;7.30;99.90;;;;;;4978843;28;88138;-89
2021/03/05 15:23:36;;;;;;;7.60;6.35;;;7.30;99.90;;;;;;4986608;28;87434;-87
2021/03/05 15:26:02;;;;;;;10.38;6.22;;;7.30;99.90;;;;;;4990491;28;86101;-87
2021/03/05 15:28:27;;;;;;;7.10;6.07;;;7.30;99.90;;;;;;4988772;28;86303;-87
2021/03/05 15:30:55;;;;;;;8.85;6.70;;;7.20;99.90;;;;;;4979893;28;87380;-89
2021/03/05 15:33:20;;;;;;;8.70;5.80;;;7.20;99.90;;;;;;4980906;28;87794;-87
2021/03/05 15:35:47;;;;;;;7.88;6.53;;;7.20;99.90;;;;;;4988015;28;86381;-88
2021/03/05 15:38:13;;;;;;;9.00;6.75;;;;;;;;;;4970633;28;86302;-87
2021/03/05 15:40:39;;;;;;;8.73;5.65;;;7.30;99.90;;;;;;4986494;28;88061;-88
2021/03/05 15:49:27;;;;;;;6.63;5.50;;;;;;;;;;5599540;23;87330;-89
2021/03/05 15:55:15;;;;;;;7.30;5.80;;;7.30;99.90;;;;;;4988377;28;86829;-87
2021/03/05 15:57:41;;;;;;;7.90;6.20;;;7.20;99.90;;;;;;4994828;28;86563;-89
2021/03/05 16:00:08;;;;;;;8.13;5.22;;;7.20;99.90;;;;;;5007744;28;86398;-88
2021/03/05 16:02:34;;;;;;;8.27;6.47;;;7.10;99.90;;;;;;4976454;28;92327;-89
2021/03/05 16:08:22;;;;;;;7.65;5.07;;;7.00;99.90;;;;;;4989982;28;87717;-89
2021/03/05 16:10:48;;;;;;;6.35;5.18;;;6.90;99.90;;;;;;4973388;28;86496;-89
2021/03/05 16:13:13;;;;;;;6.25;5.07;;;6.90;99.90;;;;;;4990958;28;87887;-89
2021/03/05 16:15:39;;;;;;;7.03;4.85;;;6.90;99.90;;;;;;4990497;28;88974;-88
2021/03/05 16:18:05;;;;;;;6.82;5.43;;;6.80;99.90;;;;;;4973119;28;86822;-88
2021/03/05 16:20:31;;;;;;;8.35;5.15;;;6.80;99.90;;;;;;4989765;28;86821;-88
2021/03/05 16:22:57;;;;;;;5.88;4.50;;;6.70;99.90;;;;;;4989520;28;89308;-89
2021/03/05 16:25:23;;;;;;;8.43;5.68;;;6.70;99.90;;;;;;4973221;28;87869;-89
2021/03/05 16:27:49;;;;;;;8.43;6.13;;;6.70;99.90;;;;;;4990663;28;86858;-88
2021/03/05 16:30:15;;;;;;;10.52;5.82;;;6.70;99.90;;;;;;4989877;28;86942;-89
2021/03/05 16:32:42;;;;;;;8.68;6.28;;;6.60;99.90;;;;;;4988528;28;88160;-87
2021/03/05 16:38:30;;;;;;;8.48;5.35;;;6.60;99.90;;;;;;4987356;28;86931;-89
2021/03/05 16:44:19;;;;;;;8.13;5.45;;;6.60;99.90;;;;;;4986733;28;86942;-87
2021/03/05 16:50:07;;;;;;;8.70;5.80;;;6.50;99.90;;;;;;4986452;28;86333;-89
2021/03/05 16:52:34;;;;;;;11.88;7.95;;;6.50;99.90;;;;;;4989697;28;86179;-89
2021/03/05 16:54:59;;;;;;;13.63;8.27;;;6.40;99.90;;;;;;4971938;28;89216;-87
2021/03/05 16:57:25;;;;;;;8.38;6.57;;;;;;;;;;4989147;28;87126;-89
2021/03/05 16:59:51;;;;;;;7.75;5.70;;;;;;;;;;4973360;28;87904;-90
2021/03/05 17:02:17;;;;;;;7.93;6.05;;;;;;;;;;4971205;28;86411;-88
2021/03/05 17:04:43;;;;;;;8.35;6.05;;;6.40;99.90;;;;;;4990404;28;87206;-87
2021/03/05 17:07:10;;;;;;;9.15;5.82;;;6.40;99.90;;;;;;4972788;28;87327;-88
2021/03/05 17:12:58;;;;;;;11.45;7.03;;;6.30;99.90;;;;;;4987044;28;86715;-87
2021/03/05 17:15:24;;;;;;;10.60;6.45;;;6.20;99.90;;;;;;4972288;28;87744;-87
2021/03/05 17:17:49;;;;;;;9.57;6.78;;;6.20;99.90;;;;;;4989650;28;86925;-87
2021/03/05 17:23:37;;;;;;;8.35;7.07;;;6.10;99.90;;;;;;4986171;28;86397;-88
2021/03/05 17:26:03;;;;;;;7.80;6.28;;;6.10;99.90;;;;;;4989205;28;88298;-87
2021/03/05 17:28:33;;;;;;;9.25;6.43;;;6.00;99.90;;;;;;4971792;28;89497;-86
2021/03/05 17:31:00;;;;;;;8.98;6.85;;;6.00;99.90;;;;;;4972392;28;86767;-87
2021/03/05 17:33:26;;;;;;;9.05;6.90;;;6.00;99.90;;;;;;4991692;28;86630;-87
2021/03/05 17:35:52;;;;;;;10.30;6.95;;;6.10;99.90;;;;;;4992228;28;87299;-84
2021/03/05 17:38:18;;;;;;;9.27;6.07;;;6.10;99.90;;;;;;4991959;28;87276;-86
2021/03/05 17:40:44;;;;;;;10.35;7.22;;;6.10;99.90;;;;;;4992430;28;85941;-87
2021/03/05 17:43:10;;;;;;;8.88;6.50;;;6.20;99.90;;;;;;4993007;28;85820;-88
2021/03/05 17:48:59;;;;;;;6.97;5.45;;;6.10;99.90;;;;;;4992567;28;86755;-86
2021/03/05 17:51:25;;;;;;;8.43;5.97;;;6.10;99.90;;;;;;4998415;28;87339;-88
2021/03/05 17:53:52;;;;;;;7.88;6.63;;;6.10;99.90;;;;;;4986735;28;86890;-88
2021/03/05 17:56:18;;;;;;;7.22;6.05;;;6.00;99.90;;;;;;4988760;28;87377;-87
2021/03/05 17:58:44;;;;;;;7.82;6.00;;;;;;;;;;4987383;28;86808;-88
2021/03/05 18:01:10;;;;;;;9.15;6.57;;;6.00;99.90;;;;;;4987604;28;86805;-84
2021/03/05 18:03:36;;;;;;;7.65;6.25;;;6.00;99.90;;;;;;4987621;28;86593;-87
2021/03/05 18:06:02;;;;;;;8.27;6.53;;;6.00;99.90;;;;;;4985709;28;88998;-88
2021/03/05 18:11:50;;;;;;;7.25;5.53;;;6.00;99.90;;;;;;4985726;28;86336;-86
2021/03/05 18:14:17;;;;;;;7.85;5.13;;;5.90;99.90;;;;;;4969772;28;87268;-87
2021/03/05 18:16:42;;;;;;;7.90;5.68;;;5.80;99.90;;;;;;4988918;28;88162;-88
2021/03/05 18:19:08;;;;;;;6.20;5.20;;;5.80;99.90;;;;;;4987175;28;88686;-84
2021/03/05 18:21:35;;;;;;;6.90;5.40;;;5.70;99.90;;;;;;4988401;28;86699;-84
2021/03/05 18:24:01;;;;;;;6.68;5.18;;;5.60;99.90;;;;;;4988396;28;86845;-85
2021/03/05 18:26:26;;;;;;;6.63;5.60;;;5.50;99.90;;;;;;4987694;28;88259;-87
2021/03/05 18:28:52;;;;;;;7.50;5.43;;;5.50;99.90;;;;;;4988148;28;86607;-83
2021/03/05 18:31:19;;;;;;;6.55;5.28;;;5.60;99.90;;;;;;4989702;28;86894;-88
2021/03/05 18:37:07;;;;;;;6.63;5.85;;;5.70;99.90;;;;;;4991076;28;87148;-87
2021/03/05 18:39:33;;;;;;;6.75;5.90;;;5.60;99.90;;;;;;4993206;28;87430;-88
2021/03/05 18:42:00;;;;;;;6.07;5.47;;;5.60;99.90;;;;;;4990785;28;87834;-87
2021/03/05 18:44:25;;;;;;;7.47;5.78;;;5.60;99.90;;;;;;5000512;28;86679;-86
2021/03/05 18:46:51;;;;;;;7.65;5.68;;;5.50;99.90;;;;;;5004636;28;86767;-88
2021/03/05 18:49:17;;;;;;;6.97;5.95;;;5.50;99.90;;;;;;4974763;28;89393;-88
2021/03/05 18:51:43;;;;;;;7.35;5.90;;;5.50;99.90;;;;;;4974506;28;86787;-89
2021/03/05 18:54:09;;;;;;;8.10;6.05;;;5.50;99.90;;;;;;4974068;28;86665;-88
2021/03/05 18:59:56;;;;;;;9.82;6.30;;;5.50;99.90;;;;;;4990075;28;85977;-87
2021/03/05 19:02:22;;;;;;;7.82;6.25;;;5.50;99.90;;;;;;4991002;28;86671;-87
2021/03/05 19:04:48;;;;;;;9.98;6.15;;;5.50;99.90;;;;;;4990992;28;86838;-87
2021/03/05 19:10:37;;;;;;;8.70;6.50;;;5.50;99.90;;;;;;4986496;28;86848;-88
2021/03/05 19:16:25;;;;;;;9.43;6.88;;;;;;;;;;4987593;28;86813;-87
2021/03/05 19:18:51;;;;;;;7.22;5.97;;;;;;;;;;4994004;28;87358;-88
2021/03/05 19:21:18;;;;;;;7.55;6.75;;;;;;;;;;4983158;28;87589;-86
2021/03/05 19:23:45;;;;;;;8.20;6.05;;;5.40;99.90;;;;;;4991103;28;86594;-87